Time;durP1;ratioP1;P1;durP2;ratioP2;P2;SDS_P1;SDS_P2;PMS_P1;PMS_P2;Temp;Humidity;BMP_temperature;BMP_pressure;BME280_temperature;BME280_humidity;BME280_pressure;Samples;Min_cycle;Max_cycle;Signal;HPM_P1;HPM_P2
2021/05/19 00:00:49;;;;;;;3.17;1.23;;;;;;;23.41;39.25;101030.56;144994;633;5002;-76
2021/05/19 00:03:16;;;;;;;4.32;1.17;;;;;;;23.33;39.53;101028.06;144994;586;5002;-77
2021/05/19 00:05:42;;;;;;;1.95;0.90;;;;;;;23.34;38.79;101028.94;144994;575;5002;-76
2021/05/19 00:08:09;;;;;;;4.57;1.10;;;;;;;23.34;38.93;101024.50;144994;614;5002;-76
2021/05/19 00:10:37;;;;;;;4.43;1.00;;;;;;;23.37;39.38;101026.25;144994;581;5002;-76
2021/05/19 00:13:04;;;;;;;4.55;1.00;;;;;;;23.37;38.86;101028.91;144993;606;5002;-76
2021/05/19 00:15:31;;;;;;;3.45;0.85;;;;;;;23.32;39.51;101028.09;144994;569;5002;-76
2021/05/19 00:18:01;;;;;;;4.18;1.00;;;;;;;23.30;39.22;101043.13;144994;573;5002;-76
2021/05/19 00:20:28;;;;;;;2.95;0.90;;;;;;;23.20;39.50;101044.22;144994;594;5002;-76
2021/05/19 00:22:54;;;;;;;4.15;0.82;;;;;;;23.12;39.72;101050.50;144994;610;5002;-77
2021/05/19 00:25:21;;;;;;;2.53;1.10;;;;;;;23.16;39.75;101044.25;144994;635;5002;-76
2021/05/19 00:27:47;;;;;;;4.37;1.20;;;;;;;23.22;39.23;101045.06;144994;571;5002;-76
2021/05/19 00:30:17;;;;;;;4.32;1.15;;;;;;;23.25;39.31;101045.00;144994;625;5002;-76
2021/05/19 00:32:44;;;;;;;2.80;0.90;;;;;;;23.28;39.38;101045.81;144994;577;5002;-75
2021/05/19 00:35:11;;;;;;;3.03;0.88;;;;;;;23.21;39.43;101046.84;144994;580;5002;-76
2021/05/19 00:37:37;;;;;;;2.92;1.10;;;;;;;23.18;38.94;101044.25;144994;581;5002;-76
2021/05/19 00:40:05;;;;;;;4.47;1.10;;;;;;;23.15;39.04;101050.44;144994;578;5002;-77
2021/05/19 00:42:31;;;;;;;3.78;0.93;;;;;;;22.96;39.53;101049.00;144994;572;5002;-76
2021/05/19 00:44:57;;;;;;;4.72;1.35;;;;;;;22.95;39.80;101053.38;144994;588;5002;-76
2021/05/19 00:47:35;;;;;;;4.25;1.17;;;;;;;22.92;39.35;101052.56;144994;660;5002;-76
2021/05/19 00:50:02;;;;;;;3.62;1.27;;;;;;;22.95;39.60;101050.75;144994;588;5002;-77
2021/05/19 00:52:28;;;;;;;2.30;0.80;;;;;;;22.92;39.53;101053.47;144994;621;5002;-75
2021/05/19 00:54:55;;;;;;;2.78;0.82;;;;;;;22.97;39.91;101050.72;144993;571;5002;-76
2021/05/19 00:57:21;;;;;;;4.00;1.12;;;;;;;23.00;39.18;101054.22;144994;564;5002;-77
2021/05/19 00:59:48;;;;;;;4.57;1.37;;;;;;;23.04;39.59;101051.50;144994;566;4567;-76
2021/05/19 01:02:14;;;;;;;4.68;1.40;;;;;;;23.06;39.65;101047.91;144994;601;4572;-77
2021/05/19 01:04:41;;;;;;;8.35;1.80;;;;;;;23.10;39.35;101054.09;144994;569;4572;-76
2021/05/19 01:07:18;;;;;;;4.35;1.15;;;;;;;23.12;39.07;101052.28;144992;578;6002;-76
2021/05/19 01:09:45;;;;;;;4.22;1.20;;;;;;;23.15;39.11;101060.19;144991;587;6002;-77
2021/05/19 01:12:17;;;;;;;4.72;1.40;;;;;;;23.15;39.42;101055.75;144992;589;6002;-77
2021/05/19 01:14:44;;;;;;;4.12;1.40;;;;;;;23.13;39.55;101057.56;144992;593;6002;-76
2021/05/19 01:17:11;;;;;;;4.78;1.35;;;;;;;22.99;40.77;101059.53;144992;579;6002;-76
2021/05/19 01:19:43;;;;;;;5.22;1.58;;;;;;;22.82;40.40;101055.34;144992;579;6002;-76
2021/05/19 01:22:29;;;;;;;4.90;2.83;;;;;;;22.76;40.64;101057.22;144992;570;6002;-75
2021/05/19 01:24:59;;;;;;;5.18;3.53;;;;;;;22.74;40.28;101064.31;144992;585;6002;-76
2021/05/19 01:27:26;;;;;;;7.10;3.22;;;;;;;22.64;39.96;101047.72;144991;676;6002;-76
2021/05/19 01:29:55;;;;;;;5.75;3.22;;;;;;;22.66;40.76;101053.84;144992;571;6002;-76
2021/05/19 01:32:23;;;;;;;6.55;2.75;;;;;;;22.71;40.72;101046.72;144992;599;6002;-76
2021/05/19 01:34:49;;;;;;;7.62;2.42;;;;;;;22.76;40.37;101052.81;144992;640;6002;-76
2021/05/19 01:37:17;;;;;;;5.10;2.12;;;;;;;22.81;40.16;101061.56;144992;567;6002;-77
2021/05/19 01:39:46;;;;;;;4.15;2.12;;;;;;;22.79;40.41;101054.53;144992;582;6002;-77
2021/05/19 01:42:13;;;;;;;7.15;1.80;;;;;;;22.84;39.82;101057.97;144992;593;6002;-77
2021/05/19 01:44:41;;;;;;;3.65;1.60;;;;;;;22.83;40.60;101057.13;144992;585;6002;-77
2021/05/19 01:47:08;;;;;;;3.92;1.15;;;;;;;22.87;40.20;101055.28;144992;582;6002;-77
2021/05/19 01:49:42;;;;;;;2.10;0.82;;;;;;;22.89;40.08;101056.16;144992;591;6002;-76
2021/05/19 01:52:11;;;;;;;2.97;1.10;;;;;;;22.93;40.53;101051.69;144992;651;6002;-76
2021/05/19 01:54:42;;;;;;;3.30;1.20;;;;;;;22.89;40.77;101063.19;144992;591;6002;-77
2021/05/19 01:57:10;;;;;;;6.53;1.10;;;;;;;22.87;40.28;101065.00;144992;660;6002;-76
2021/05/19 01:59:37;;;;;;;5.40;1.23;;;;;;;22.80;40.03;101062.47;144992;603;6002;-76
2021/05/19 02:02:04;;;;;;;5.12;2.05;;;;;;;22.83;40.15;101082.72;144992;583;6002;-76
2021/05/19 02:04:31;;;;;;;3.95;1.23;;;;;;;22.86;39.70;101085.31;144992;572;6002;-75
2021/05/19 02:06:59;;;;;;;4.53;1.20;;;;;;;22.87;40.28;101092.34;144992;635;6002;-76
2021/05/19 02:09:26;;;;;;;2.80;1.20;;;;;;;22.90;40.25;101092.31;144992;605;6002;-75
2021/05/19 02:11:53;;;;;;;1.87;0.90;;;;;;;22.84;39.93;101092.38;144992;663;6002;-76
2021/05/19 02:14:21;;;;;;;3.28;1.00;;;;;;;22.84;40.45;101095.03;144992;577;6002;-75
2021/05/19 02:16:48;;;;;;;3.30;0.90;;;;;;;22.86;40.02;101105.59;144992;582;6002;-75
2021/05/19 02:19:15;;;;;;;3.60;1.25;;;;;;;22.86;39.72;101105.59;144992;566;6002;-76
2021/05/19 02:21:46;;;;;;;3.35;1.02;;;;;;;22.83;39.72;101101.25;144992;632;6002;-77
2021/05/19 02:24:14;;;;;;;5.55;1.25;;;;;;;22.82;39.94;101097.69;144992;623;6002;-75
2021/05/19 02:26:41;;;;;;;2.70;1.10;;;;;;;22.82;39.53;101097.69;144992;576;6002;-75
2021/05/19 02:29:09;;;;;;;5.10;1.20;;;;;;;22.84;39.86;101097.69;144992;587;6002;-75
2021/05/19 02:31:37;;;;;;;5.85;1.35;;;;;;;22.83;40.01;101094.16;144992;682;6002;-75
2021/05/19 02:34:04;;;;;;;6.15;1.67;;;;;;;22.81;39.88;101087.13;144992;564;6002;-75
2021/05/19 02:36:30;;;;;;;5.25;1.45;;;;;;;22.78;40.26;101090.72;144992;567;6002;-75
2021/05/19 02:38:57;;;;;;;4.90;1.10;;;;;;;22.75;39.79;101082.84;144992;682;6002;-76
2021/05/19 02:41:24;;;;;;;3.05;1.20;;;;;;;22.77;39.67;101094.25;144992;569;6002;-75
2021/05/19 02:43:52;;;;;;;3.28;0.90;;;;;;;22.76;40.08;101089.84;144992;591;6002;-76
2021/05/19 02:46:18;;;;;;;4.53;1.30;;;;;;;22.71;39.89;101086.41;144992;595;6002;-75
2021/05/19 02:48:45;;;;;;;4.30;1.20;;;;;;;22.71;39.67;101088.19;144992;687;6002;-76
2021/05/19 02:51:12;;;;;;;6.25;1.80;;;;;;;22.61;40.36;101098.03;144992;564;6002;-76
2021/05/19 02:53:39;;;;;;;6.47;2.30;;;;;;;22.40;41.52;101096.56;144992;630;6002;-75
2021/05/19 02:56:05;;;;;;;8.77;3.33;;;;;;;22.32;41.54;101107.25;144992;661;6002;-75
2021/05/19 02:58:32;;;;;;;7.78;2.83;;;;;;;22.27;41.37;101107.25;144992;597;6002;-75
2021/05/19 03:00:59;;;;;;;10.60;2.55;;;;;;;22.25;40.93;101119.59;144991;575;6002;-75
2021/05/19 03:03:25;;;;;;;7.43;2.60;;;;;;;22.25;40.93;101131.97;144992;601;6002;-75
2021/05/19 03:05:52;;;;;;;15.13;2.62;;;;;;;22.20;41.33;101124.09;144992;574;6002;-75
2021/05/19 03:08:18;;;;;;;11.07;2.67;;;;;;;22.24;41.73;101128.44;144992;650;6002;-75
2021/05/19 03:10:45;;;;;;;7.47;2.40;;;;;;;22.28;40.98;101118.72;144992;677;6002;-74
2021/05/19 03:13:11;;;;;;;10.85;2.35;;;;;;;22.33;40.89;101119.53;144991;575;6002;-76
2021/05/19 03:15:41;;;;;;;10.05;2.20;;;;;;;22.37;41.05;101134.50;144992;565;6002;-76
2021/05/19 03:18:07;;;;;;;5.45;2.03;;;;;;;22.36;40.88;101126.59;144991;565;6002;-76
2021/05/19 03:20:33;;;;;;;5.60;2.00;;;;;;;22.17;41.98;101131.19;144992;633;6002;-75
2021/05/19 03:23:00;;;;;;;6.43;2.03;;;;;;;21.99;41.84;101129.63;144992;575;6002;-75
2021/05/19 03:25:27;;;;;;;4.35;1.75;;;;;;;21.98;41.87;101133.16;144992;663;6003;-75
2021/05/19 03:27:53;;;;;;;6.40;1.92;;;;;;;22.01;41.56;101131.34;144992;640;6002;-76
2021/05/19 03:30:20;;;;;;;5.57;2.15;;;;;;;22.06;41.26;101131.31;144992;614;6002;-75
2021/05/19 03:32:47;;;;;;;5.90;1.92;;;;;;;22.13;41.44;101132.09;144992;656;6002;-76
2021/05/19 03:35:14;;;;;;;5.22;2.10;;;;;;;22.16;41.29;101130.31;144992;699;6002;-76
2021/05/19 03:37:41;;;;;;;7.20;2.33;;;;;;;22.14;41.49;101128.56;144992;656;6002;-76
2021/05/19 03:40:11;;;;;;;8.10;2.47;;;;;;;22.17;41.28;101139.97;144992;619;6002;-75
2021/05/19 03:42:37;;;;;;;5.40;2.03;;;;;;;22.20;42.11;101141.72;144992;626;6002;-75
2021/05/19 03:45:11;;;;;;;18.30;2.47;;;;;;;22.23;41.95;101144.34;144992;623;6002;-76
2021/05/19 03:47:37;;;;;;;8.18;2.08;;;;;;;22.27;41.05;101153.97;144992;608;6002;-76
2021/05/19 03:50:06;;;;;;;7.50;2.40;;;;;;;22.28;41.05;101155.72;144992;658;6002;-75
2021/05/19 03:52:33;;;;;;;8.32;2.00;;;;;;;22.26;41.48;101157.53;144992;613;6002;-76
2021/05/19 03:55:00;;;;;;;6.72;2.35;;;;;;;22.28;41.63;101158.38;144992;627;6002;-76
2021/05/19 03:57:28;;;;;;;7.10;2.15;;;;;;;22.27;41.59;101153.97;144992;646;6002;-77
2021/05/19 03:59:55;;;;;;;7.35;2.00;;;;;;;22.28;41.95;101151.31;144992;569;6002;-75
2021/05/19 04:02:21;;;;;;;5.37;1.60;;;;;;;22.31;40.91;101139.84;144992;569;6002;-74
2021/05/19 04:04:47;;;;;;;6.03;1.80;;;;;;;22.36;41.45;101142.44;144992;566;6002;-74
2021/05/19 04:07:15;;;;;;;6.18;1.65;;;;;;;22.39;40.98;101148.56;144992;594;6002;-74
2021/05/19 04:09:41;;;;;;;8.55;2.20;;;;;;;22.35;41.79;101160.09;144992;662;6002;-75
2021/05/19 04:12:08;;;;;;;7.25;1.80;;;;;;;22.34;41.67;101157.47;144992;592;6002;-75
2021/05/19 04:14:35;;;;;;;6.55;1.92;;;;;;;22.34;41.76;101142.47;144992;665;6002;-75
2021/05/19 04:17:01;;;;;;;4.57;1.80;;;;;;;22.35;42.18;101146.88;144992;585;6002;-76
2021/05/19 04:19:30;;;;;;;5.93;1.70;;;;;;;22.39;41.65;101132.69;144992;580;6002;-77
2021/05/19 04:21:57;;;;;;;4.62;1.40;;;;;;;22.42;41.60;101130.03;144992;576;6002;-77
2021/05/19 04:24:23;;;;;;;5.62;2.00;;;;;;;22.43;41.80;101130.88;144992;641;6002;-76
2021/05/19 04:26:49;;;;;;;4.72;1.90;;;;;;;22.46;41.99;101131.75;144992;679;6002;-77
2021/05/19 04:29:16;;;;;;;9.40;2.08;;;;;;;22.52;41.55;101132.53;144992;633;6002;-76
2021/05/19 04:31:42;;;;;;;4.07;1.73;;;;;;;22.57;40.95;101121.03;144992;552;6002;-76
2021/05/19 04:34:09;;;;;;;7.07;1.80;;;;;;;22.61;40.96;101121.84;144992;587;6002;-80
2021/05/19 04:36:35;;;;;;;5.82;2.10;;;;;;;22.68;41.35;101122.63;144992;662;6002;-76
2021/05/19 04:39:04;;;;;;;7.93;2.00;;;;;;;22.70;41.58;101121.72;144992;656;6002;-75
2021/05/19 04:41:31;;;;;;;5.32;1.80;;;;;;;22.73;41.50;101121.69;144992;647;6002;-74
2021/05/19 04:43:57;;;;;;;7.97;2.22;;;;;;;22.80;41.27;101119.81;144992;647;6002;-76
2021/05/19 04:46:24;;;;;;;4.97;1.67;;;;;;;22.86;40.79;101125.03;144992;656;6002;-76
2021/05/19 04:48:54;;;;;;;5.22;2.00;;;;;;;22.92;41.21;101118.75;144992;694;6002;-76
2021/05/19 04:51:20;;;;;;;4.93;2.20;;;;;;;22.96;40.60;101117.81;144992;648;6002;-76
2021/05/19 04:53:47;;;;;;;4.75;1.80;;;;;;;23.00;41.06;101120.41;144991;616;6011;-74
2021/05/19 04:56:16;;;;;;;9.95;2.22;;;;;;;23.04;40.67;101131.81;144992;605;6002;-75
2021/05/19 04:58:43;;;;;;;5.47;2.10;;;;;;;22.96;40.45;101128.41;144991;576;6002;-76
2021/05/19 05:01:09;;;;;;;8.43;1.85;;;;;;;22.92;40.70;101124.03;144992;569;6002;-76
2021/05/19 05:03:36;;;;;;;8.57;1.92;;;;;;;22.72;41.65;101124.34;144992;571;6002;-75
2021/05/19 05:06:02;;;;;;;5.95;1.83;;;;;;;22.71;41.38;101126.09;144991;589;6002;-75
2021/05/19 05:08:29;;;;;;;5.82;1.80;;;;;;;22.76;41.97;101132.19;144992;620;6002;-76
2021/05/19 05:10:56;;;;;;;4.87;1.77;;;;;;;22.83;42.00;101122.41;144992;579;6002;-75
2021/05/19 05:13:23;;;;;;;6.53;2.03;;;;;;;22.88;41.94;101125.00;144992;624;6002;-75
2021/05/19 05:15:50;;;;;;;7.37;1.75;;;;;;;22.92;42.87;101119.62;144992;665;6002;-75
2021/05/19 05:18:17;;;;;;;11.02;1.95;;;;;;;22.71;43.96;101127.88;144992;583;6002;-74
2021/05/19 05:20:43;;;;;;;8.05;1.45;;;;;;;22.73;46.21;101116.38;144992;637;6002;-76
2021/05/19 05:23:10;;;;;;;4.68;1.70;;;;;;;22.70;44.23;101116.44;144992;648;6002;-74
2021/05/19 05:25:36;;;;;;;7.10;1.75;;;;;;;22.70;43.88;101120.81;144992;564;6002;-76
2021/05/19 05:28:03;;;;;;;8.57;1.95;;;;;;;22.70;44.86;101115.53;144992;593;6002;-77
2021/05/19 05:30:30;;;;;;;5.68;1.60;;;;;;;22.69;47.37;101113.81;144992;578;6002;-73
2021/05/19 05:32:57;;;;;;;5.37;1.48;;;;;;;22.73;44.29;101115.50;144992;625;6002;-73
2021/05/19 05:35:23;;;;;;;5.75;1.73;;;;;;;22.76;44.50;101108.37;144992;588;6002;-75
2021/05/19 05:37:50;;;;;;;5.55;1.60;;;;;;;22.85;44.35;101110.03;144992;571;6002;-77
2021/05/19 05:40:16;;;;;;;5.40;1.65;;;;;;;22.87;44.70;101102.94;144992;592;6002;-76
2021/05/19 05:42:42;;;;;;;5.05;1.55;;;;;;;22.99;44.55;101101.87;144992;654;6002;-75
2021/05/19 05:45:11;;;;;;;5.22;1.87;;;;;;;22.98;44.73;101101.00;144992;565;6002;-75
2021/05/19 05:47:37;;;;;;;8.55;1.90;;;;;;;23.01;48.27;101105.38;144992;579;6002;-74
2021/05/19 05:50:05;;;;;;;9.70;1.95;;;;;;;23.13;45.72;101101.66;144992;593;6002;-75
2021/05/19 05:52:31;;;;;;;8.45;2.40;;;;;;;22.85;47.86;101109.16;144992;606;6002;-75
2021/05/19 05:54:58;;;;;;;5.43;1.80;;;;;;;23.05;47.77;101096.50;144992;579;6002;-74
2021/05/19 05:57:24;;;;;;;7.30;1.92;;;;;;;22.79;50.06;101107.47;144992;618;6002;-76
2021/05/19 05:59:51;;;;;;;4.47;1.52;;;;;;;22.67;50.06;101099.69;144992;607;6002;-75
2021/05/19 06:02:18;;;;;;;9.05;2.20;;;;;;;22.66;51.48;101104.13;144992;622;6002;-74
2021/05/19 06:04:45;;;;;;;9.70;1.90;;;;;;;22.60;52.87;101102.44;144992;582;6002;-76
2021/05/19 06:07:11;;;;;;;7.93;1.95;;;;;;;22.56;51.26;101107.81;144992;569;6002;-76
2021/05/19 06:09:38;;;;;;;8.95;1.87;;;;;;;22.58;50.46;101106.00;144992;629;6002;-75
2021/05/19 06:12:04;;;;;;;4.40;1.75;;;;;;;22.63;52.14;101096.22;144991;566;6002;-74
2021/05/19 06:14:31;;;;;;;5.00;1.73;;;;;;;22.53;53.31;101094.63;144992;655;6002;-74
2021/05/19 06:16:59;;;;;;;7.90;1.83;;;;;;;22.45;54.61;101090.31;144992;632;6002;-76
2021/05/19 06:19:26;;;;;;;4.90;1.50;;;;;;;22.34;53.64;101092.22;144992;738;6002;-75
2021/05/19 06:21:52;;;;;;;7.90;1.70;;;;;;;22.39;53.54;101079.81;144992;571;6002;-77
2021/05/19 06:24:19;;;;;;;4.68;1.77;;;;;;;22.21;55.80;101093.25;144992;652;6002;-75
2021/05/19 06:26:45;;;;;;;5.85;1.83;;;;;;;22.02;59.35;101093.47;144992;604;6002;-75
2021/05/19 06:29:13;;;;;;;3.67;1.48;;;;;;;22.04;55.43;101083.75;144992;569;6002;-75
2021/05/19 06:31:39;;;;;;;4.80;1.60;;;;;;;22.05;55.22;101076.69;144992;570;6011;-75
2021/05/19 06:34:05;;;;;;;8.60;1.80;;;;;;;22.10;55.31;101081.03;144992;579;6002;-76
2021/05/19 06:36:32;;;;;;;7.07;1.42;;;;;;;21.95;57.84;101078.56;144992;687;6002;-76
2021/05/19 06:38:58;;;;;;;6.35;2.10;;;;;;;21.95;57.82;101072.41;144992;663;6002;-76
2021/05/19 06:41:25;;;;;;;4.47;1.48;;;;;;;22.00;57.35;101075.84;144992;573;6002;-76
2021/05/19 06:43:53;;;;;;;2.72;1.40;;;;;;;22.08;56.48;101074.03;144992;657;6002;-75
2021/05/19 06:46:20;;;;;;;7.25;2.00;;;;;;;21.99;56.62;101079.41;144992;674;6002;-76
2021/05/19 06:48:46;;;;;;;5.50;1.60;;;;;;;21.99;57.18;101082.91;144992;610;6002;-76
2021/05/19 06:51:13;;;;;;;7.35;1.83;;;;;;;21.71;57.92;101075.31;144991;597;6002;-76
2021/05/19 06:53:39;;;;;;;6.12;1.98;;;;;;;21.64;60.19;101089.47;144992;565;6002;-76
2021/05/19 06:56:06;;;;;;;5.82;1.90;;;;;;;21.78;60.36;101094.63;144992;564;6002;-77
2021/05/19 06:58:33;;;;;;;6.53;2.67;;;;;;;21.71;60.72;101099.09;144992;643;6002;-75
2021/05/19 07:00:59;;;;;;;4.53;1.42;;;;;;;22.00;57.37;101094.34;144992;566;6002;-75
2021/05/19 07:03:26;;;;;;;7.50;2.00;;;;;;;22.00;57.42;101099.66;144992;654;6002;-76
2021/05/19 07:05:52;;;;;;;5.70;1.58;;;;;;;22.07;56.45;101093.41;144992;580;6002;-77
2021/05/19 07:08:21;;;;;;;3.22;1.60;;;;;;;22.30;56.06;101097.56;144992;654;6002;-76
2021/05/19 07:10:47;;;;;;;5.20;1.95;;;;;;;22.33;55.20;101090.47;144992;587;6002;-76
2021/05/19 07:13:17;;;;;;;4.62;1.77;;;;;;;22.36;54.87;101081.63;144992;578;6002;-77
2021/05/19 07:15:45;;;;;;;5.72;2.05;;;;;;;22.54;54.81;101080.47;144992;640;6002;-76
2021/05/19 07:18:14;;;;;;;6.45;1.92;;;;;;;22.69;53.52;101080.28;144992;587;6002;-76
2021/05/19 07:20:41;;;;;;;4.70;2.30;;;;;;;22.88;53.75;101074.72;144992;587;6002;-75
2021/05/19 07:23:07;;;;;;;10.45;4.28;;;;;;;22.96;53.86;101065.72;144993;580;6002;-76
2021/05/19 07:25:34;;;;;;;7.32;2.20;;;;;;;23.09;52.69;101074.37;144993;641;6002;-75
2021/05/19 07:28:01;;;;;;;6.50;1.90;;;;;;;23.10;52.48;101068.19;144993;571;6002;-75
2021/05/19 07:30:29;;;;;;;7.85;1.98;;;;;;;23.20;52.45;101068.06;144993;687;6002;-76
2021/05/19 07:32:57;;;;;;;5.57;1.67;;;;;;;23.30;52.04;101070.47;144993;565;6002;-75
2021/05/19 07:35:26;;;;;;;10.15;2.12;;;;;;;23.31;51.27;101064.28;144992;596;6002;-75
2021/05/19 07:37:53;;;;;;;7.40;1.90;;;;;;;23.47;51.40;101059.59;144993;589;6002;-76
2021/05/19 07:40:22;;;;;;;4.30;1.83;;;;;;;23.64;50.95;101055.75;144993;604;6002;-75
2021/05/19 07:42:51;;;;;;;5.68;1.98;;;;;;;23.72;50.84;101054.72;144993;589;6002;-76
2021/05/19 07:45:17;;;;;;;6.22;2.12;;;;;;;23.84;50.92;101048.31;144993;594;6002;-76
2021/05/19 07:47:45;;;;;;;6.60;1.92;;;;;;;23.99;50.35;101048.91;144993;569;6002;-75
2021/05/19 07:50:13;;;;;;;6.75;2.17;;;;;;;23.92;50.18;101042.00;144993;590;6002;-76
2021/05/19 07:52:39;;;;;;;6.62;2.00;;;;;;;23.74;50.75;101041.44;144992;653;6002;-75
2021/05/19 07:55:11;;;;;;;8.85;2.25;;;;;;;23.55;52.08;101041.78;144993;623;6002;-75
2021/05/19 07:57:49;;;;;;;8.68;2.40;;;;;;;23.48;52.59;101042.81;144992;566;6002;-76
2021/05/19 08:00:21;;;;;;;4.30;2.30;;;;;;;23.49;52.88;101044.53;144992;574;6002;-75
2021/05/19 08:02:48;;;;;;;6.35;2.53;;;;;;;23.73;51.08;101037.03;144992;569;6002;-75
2021/05/19 08:05:15;;;;;;;9.88;3.20;;;;;;;23.78;52.52;101028.97;144993;611;6002;-75
2021/05/19 08:07:41;;;;;;;6.43;2.50;;;;;;;23.57;52.68;101028.50;144993;576;6002;-75
2021/05/19 08:10:08;;;;;;;6.45;2.37;;;;;;;23.32;53.45;101028.09;144993;631;6002;-76
2021/05/19 08:12:35;;;;;;;8.32;2.30;;;;;;;23.17;54.90;101018.66;144993;579;6002;-76
2021/05/19 08:15:01;;;;;;;7.93;2.47;;;;;;;23.27;53.24;101027.31;144993;672;6002;-76
2021/05/19 08:17:28;;;;;;;8.30;2.20;;;;;;;23.43;53.41;101023.47;144992;566;6002;-76
2021/05/19 08:19:55;;;;;;;5.43;2.03;;;;;;;23.10;54.08;101017.03;144993;572;6002;-76
2021/05/19 08:22:24;;;;;;;5.55;1.95;;;;;;;23.27;54.11;101016.69;144993;584;6002;-77
2021/05/19 08:24:50;;;;;;;6.40;2.33;;;;;;;23.32;52.79;101014.84;144993;625;6002;-76
2021/05/19 08:27:16;;;;;;;5.87;2.25;;;;;;;23.40;52.44;101010.28;144993;563;6002;-77
2021/05/19 08:29:43;;;;;;;6.62;2.20;;;;;;;23.30;52.47;101006.91;144993;624;6002;-76
2021/05/19 08:32:10;;;;;;;7.28;1.70;;;;;;;23.43;51.46;101009.34;144993;633;6002;-76
2021/05/19 08:34:36;;;;;;;4.43;1.65;;;;;;;23.25;50.42;101006.13;144993;654;6002;-76
2021/05/19 08:37:03;;;;;;;5.72;1.70;;;;;;;23.39;50.41;101005.03;144993;587;6002;-75
2021/05/19 08:39:30;;;;;;;5.80;2.25;;;;;;;23.35;50.67;101004.19;144993;623;6002;-77
2021/05/19 08:41:57;;;;;;;15.75;2.17;;;;;;;23.30;50.55;101006.06;144993;570;6002;-78
2021/05/19 08:44:24;;;;;;;12.13;2.22;;;;;;;23.36;50.52;100990.91;144993;590;6002;-76
2021/05/19 08:46:56;;;;;;;11.18;2.15;;;;;;;23.32;51.17;100993.66;144992;613;6002;-78
2021/05/19 08:49:23;;;;;;;7.40;1.65;;;;;;;23.27;50.96;100990.22;144993;630;6002;-77
2021/05/19 08:51:50;;;;;;;5.18;1.70;;;;;;;23.31;50.12;100990.13;144993;569;6002;-75
2021/05/19 08:54:18;;;;;;;6.22;1.83;;;;;;;23.25;50.32;100987.59;144992;609;6002;-75
2021/05/19 08:56:47;;;;;;;4.45;1.62;;;;;;;23.12;50.88;100979.00;144993;630;6002;-75
2021/05/19 08:59:14;;;;;;;4.28;1.40;;;;;;;23.10;50.39;100980.81;144993;608;5002;-77
2021/05/19 09:01:49;;;;;;;2.62;1.40;;;;;;;22.99;49.79;100978.31;144994;607;5002;-76
2021/05/19 09:04:25;;;;;;;5.95;1.52;;;;;;;23.17;49.45;100977.16;144994;574;5002;-76
2021/05/19 09:06:59;;;;;;;4.50;1.40;;;;;;;23.18;48.96;100978.91;144994;584;5004;-76
2021/05/19 09:09:37;;;;;;;4.30;1.67;;;;;;;23.28;48.52;100973.44;144994;562;5004;-74
2021/05/19 09:12:16;;;;;;;4.90;1.20;;;;;;;23.27;45.50;100969.03;144994;585;5004;-75
2021/05/19 09:15:13;;;;;;;6.70;2.08;;;;;;;23.52;45.72;100972.09;144994;565;5004;-75
2021/05/19 09:17:40;;;;;;;6.03;1.60;;;;;;;23.65;42.80;100970.06;144994;718;5002;-75
2021/05/19 09:20:15;;;;;;;5.47;2.00;;;;;;;23.66;43.94;100961.22;144994;632;5002;-77
2021/05/19 09:22:47;;;;;;;7.93;1.48;;;;;;;23.87;43.46;100955.47;144994;574;5002;-77
2021/05/19 09:25:30;;;;;;;5.45;1.67;;;;;;;23.89;39.78;100951.03;144994;566;5002;-75
2021/05/19 09:27:59;;;;;;;2.80;1.00;;;;;;;24.05;40.32;100954.22;144994;595;5002;-76
2021/05/19 09:30:43;;;;;;;5.90;1.33;;;;;;;24.02;39.65;100948.09;144994;626;5003;-76
2021/05/19 09:33:22;;;;;;;10.07;2.05;;;;;;;24.03;38.60;100942.75;144994;569;5002;-76
2021/05/19 09:36:24;;;;;;;5.37;1.35;;;;;;;24.23;38.31;100941.44;144994;616;5002;-75
2021/05/19 09:38:53;;;;;;;8.68;1.23;;;;;;;24.11;36.55;100933.75;144994;566;5004;-75
2021/05/19 09:41:25;;;;;;;5.37;1.85;;;;;;;24.15;38.60;100938.97;144994;617;5004;-76
2021/05/19 09:43:55;;;;;;;5.82;1.85;;;;;;;24.26;37.89;100936.94;144993;676;5004;-75
2021/05/19 09:46:37;;;;;;;4.50;1.30;;;;;;;24.44;37.54;100932.09;144994;590;5002;-76
2021/05/19 09:49:32;;;;;;;4.60;1.40;;;;;;;24.30;39.13;100923.59;144994;630;5002;-75
2021/05/19 09:52:14;;;;;;;3.70;1.42;;;;;;;24.35;39.10;100930.50;144994;593;5004;-76
2021/05/19 09:54:43;;;;;;;4.07;1.10;;;;;;;24.36;40.41;100929.63;144994;603;5004;-75
2021/05/19 09:57:14;;;;;;;4.05;1.30;;;;;;;24.42;39.65;100925.94;144994;588;5004;-76
2021/05/19 09:59:43;;;;;;;5.35;1.73;;;;;;;24.44;39.26;100914.38;144994;609;5004;-75
2021/05/19 10:02:11;;;;;;;4.78;1.60;;;;;;;24.37;37.56;100923.41;144994;578;5004;-76
2021/05/19 10:04:39;;;;;;;3.42;1.50;;;;;;;24.51;36.93;100914.22;144994;575;5004;-76
2021/05/19 10:07:13;;;;;;;4.18;1.55;;;;;;;24.61;37.91;100905.16;144994;671;5004;-76
2021/05/19 10:09:39;;;;;;;11.50;2.33;;;;;;;24.63;37.48;100895.38;144994;580;5004;-76
2021/05/19 10:12:07;;;;;;;8.07;2.10;;;;;;;24.81;37.47;100894.87;144994;569;5004;-77
2021/05/19 10:14:35;;;;;;;7.93;2.75;;;;;;;24.87;37.16;100887.69;144994;571;5004;-77
2021/05/19 10:17:08;;;;;;;9.13;3.00;;;;;;;25.00;37.43;100886.41;144994;562;5004;-76
2021/05/19 10:19:39;;;;;;;8.07;3.12;;;;;;;25.13;36.56;100878.97;144994;565;5004;-77
2021/05/19 10:22:16;;;;;;;5.78;2.00;;;;;;;25.28;37.30;100875.94;144994;603;5005;-77
2021/05/19 10:25:05;;;;;;;4.57;1.60;;;;;;;25.24;38.40;100873.38;144994;639;5004;-75
2021/05/19 10:27:52;;;;;;;3.12;1.40;;;;;;;25.28;38.72;100867.94;144994;579;5002;-76
2021/05/19 10:30:40;;;;;;;3.90;1.15;;;;;;;25.29;39.98;100867.06;144994;587;5002;-75
2021/05/19 10:33:28;;;;;;;4.20;1.23;;;;;;;25.31;39.24;100859.00;144994;602;5004;-77
2021/05/19 10:35:58;;;;;;;4.85;1.20;;;;;;;25.46;38.60;100852.38;144994;569;5002;-77
2021/05/19 10:38:34;;;;;;;5.47;1.55;;;;;;;25.41;40.06;100843.69;144994;582;5002;-76
2021/05/19 10:41:05;;;;;;;6.93;1.65;;;;;;;25.53;40.68;100830.00;144994;621;5002;-77
2021/05/19 10:43:58;;;;;;;5.78;1.50;;;;;;;25.58;41.83;100828.09;144994;585;5002;-77
2021/05/19 10:46:47;;;;;;;5.97;2.25;;;;;;;25.66;43.18;100826.06;144994;569;5002;-75
2021/05/19 10:49:17;;;;;;;7.53;1.65;;;;;;;25.84;42.84;100829.91;144994;594;5004;-76
2021/05/19 10:51:50;;;;;;;4.62;1.42;;;;;;;25.91;42.13;100833.25;144994;640;5004;-77
2021/05/19 11:00:32;;;;;;;3.62;1.50;;;;;;;26.13;40.62;100816.63;144994;611;5004;-77
2021/05/19 11:03:18;;;;;;;5.15;1.60;;;;;;;26.27;40.51;100813.50;144994;618;5002;-76
2021/05/19 11:06:13;;;;;;;4.53;1.40;;;;;;;26.40;39.95;100798.84;144994;567;5004;-76
2021/05/19 11:08:40;;;;;;;7.80;1.85;;;;;;;26.47;38.08;100797.72;144994;570;5002;-75
2021/05/19 11:11:30;;;;;;;3.75;1.48;;;;;;;26.68;37.95;100793.44;144994;621;5002;-77
2021/05/19 11:14:47;;;;;;;4.35;1.40;;;;;;;26.85;37.76;100792.81;144994;590;5002;-75
2021/05/19 11:17:25;;;;;;;4.65;1.48;;;;;;;26.87;37.12;100790.09;144994;634;5002;-77
2021/05/19 11:19:51;;;;;;;4.85;1.40;;;;;;;26.89;36.87;100782.94;144994;574;5002;-77
2021/05/19 11:22:18;;;;;;;4.15;1.48;;;;;;;26.88;37.59;100784.72;144994;630;5002;-75
2021/05/19 11:24:55;;;;;;;5.00;1.12;;;;;;;26.94;36.75;100783.63;144994;614;5002;-76
2021/05/19 11:27:27;;;;;;;3.97;1.67;;;;;;;26.97;36.96;100789.69;144994;605;5002;-76
2021/05/19 11:29:54;;;;;;;4.22;1.45;;;;;;;26.90;37.29;100782.00;144994;597;5003;-76
2021/05/19 11:32:31;;;;;;;4.62;1.42;;;;;;;26.82;38.15;100774.31;144994;852;5002;-76
2021/05/19 11:35:19;;;;;;;4.43;1.45;;;;;;;26.71;38.95;100768.50;144994;581;5002;-77
2021/05/19 11:38:15;;;;;;;3.90;1.45;;;;;;;26.60;39.32;100755.56;144994;569;5002;-76
2021/05/19 11:40:51;;;;;;;2.90;1.50;;;;;;;26.63;39.07;100752.78;144994;575;5004;-77
2021/05/19 11:43:23;;;;;;;4.65;1.55;;;;;;;26.71;39.56;100753.41;144994;696;5004;-77
2021/05/19 11:45:58;;;;;;;4.20;1.40;;;;;;;26.79;39.87;100747.78;144994;592;5004;-75
2021/05/19 11:48:28;;;;;;;2.45;1.40;;;;;;;26.67;40.30;100742.91;144994;581;5004;-76
2021/05/19 11:50:56;;;;;;;3.40;1.50;;;;;;;26.84;39.09;100739.63;144993;654;5004;-77